Time;durP1;ratioP1;P1;durP2;ratioP2;P2;SDS_P1;SDS_P2;PMS_P1;PMS_P2;Temp;Humidity;BMP_temperature;BMP_pressure;BME280_temperature;BME280_humidity;BME280_pressure;Samples;Min_cycle;Max_cycle;Signal;HPM_P1;HPM_P2
2022/10/25 00:00:18;;;;;;;1.65;0.20;;;12.80;99.90;;;;;;5063618;28;20032;-78
2022/10/25 00:02:44;;;;;;;1.23;0.20;;;12.90;99.90;;;;;;5075815;28;20036;-76
2022/10/25 00:05:14;;;;;;;3.75;0.40;;;12.90;99.90;;;;;;5045709;28;20028;-75
2022/10/25 00:07:40;;;;;;;1.60;0.30;;;12.90;99.90;;;;;;5062270;28;20383;-82
2022/10/25 00:10:06;;;;;;;1.25;0.25;;;13.00;99.90;;;;;;5064659;28;20025;-76
2022/10/25 00:12:32;;;;;;;1.85;0.20;;;13.00;99.90;;;;;;5064079;28;20155;-79
2022/10/25 00:15:01;;;;;;;2.42;0.20;;;13.00;99.90;;;;;;5049570;28;20078;-76
2022/10/25 00:17:27;;;;;;;6.88;0.40;;;12.90;99.90;;;;;;5067844;28;20062;-78
2022/10/25 00:19:52;;;;;;;3.10;0.40;;;13.00;99.90;;;;;;5064359;28;20056;-77
2022/10/25 00:22:18;;;;;;;2.05;0.50;;;13.10;99.90;;;;;;5061308;28;20511;-81
2022/10/25 00:24:44;;;;;;;2.40;0.60;;;13.10;99.90;;;;;;5066846;28;20028;-76
2022/10/25 00:27:10;;;;;;;2.53;0.40;;;13.10;99.90;;;;;;5062526;28;20025;-75
2022/10/25 00:29:36;;;;;;;2.25;0.30;;;13.10;99.90;;;;;;5063741;28;20496;-76
2022/10/25 00:32:01;;;;;;;2.65;0.38;;;13.10;99.90;;;;;;5063071;28;20033;-76
2022/10/25 00:34:27;;;;;;;3.88;0.55;;;13.10;99.90;;;;;;5065325;28;20545;-79
2022/10/25 00:36:52;;;;;;;2.75;0.47;;;13.10;99.90;;;;;;5075133;28;20039;-76
2022/10/25 00:39:18;;;;;;;2.95;0.50;;;13.10;99.90;;;;;;5061715;28;20028;-76
2022/10/25 00:41:44;;;;;;;2.97;0.40;;;13.00;99.90;;;;;;5063234;28;20041;-77
2022/10/25 00:44:34;;;;;;;2.35;0.63;;;13.00;99.90;;;;;;5064503;28;20385;-75
2022/10/25 00:47:03;;;;;;;2.42;0.30;;;12.90;99.90;;;;;;5045526;28;20048;-77
2022/10/25 00:49:31;;;;;;;1.80;0.30;;;13.00;99.90;;;;;;5064175;28;20047;-75
2022/10/25 00:52:00;;;;;;;2.95;0.40;;;13.00;99.90;;;;;;5064316;28;20500;-76
2022/10/25 00:54:30;;;;;;;3.53;0.50;;;13.00;99.90;;;;;;5042174;28;20036;-76
2022/10/25 00:56:59;;;;;;;2.05;0.30;;;13.00;99.90;;;;;;5059235;28;20036;-76
2022/10/25 00:59:27;;;;;;;2.80;0.30;;;13.10;99.90;;;;;;5077262;28;20077;-78
2022/10/25 01:01:53;;;;;;;1.58;0.30;;;13.10;99.90;;;;;;5064433;28;20039;-80
2022/10/25 01:04:23;;;;;;;3.25;0.40;;;13.10;99.90;;;;;;5063959;28;20024;-76
2022/10/25 01:06:50;;;;;;;;;;;13.10;99.90;;;;;;5067130;28;20493;-80
2022/10/25 01:09:26;;;;;;;1.90;0.40;;;13.10;99.90;;;;;;5072828;28;20008;-76
2022/10/25 01:11:52;;;;;;;3.30;0.40;;;13.20;99.90;;;;;;5063261;28;20516;-77
2022/10/25 01:14:19;;;;;;;2.45;0.50;;;13.20;99.90;;;;;;5062470;28;20045;-81
2022/10/25 01:17:16;;;;;;;4.55;0.55;;;13.30;99.90;;;;;;5062308;28;20020;-79
2022/10/25 01:20:00;;;;;;;4.60;0.93;;;13.30;99.90;;;;;;5062745;28;20473;-77
2022/10/25 01:22:41;;;;;;;2.45;0.50;;;13.30;99.90;;;;;;5066241;28;20033;-81
2022/10/25 01:25:44;;;;;;;3.60;0.50;;;13.40;99.90;;;;;;5048545;28;20421;-76
2022/10/25 01:28:20;;;;;;;4.97;0.50;;;13.40;99.90;;;;;;5060537;28;20029;-75
2022/10/25 01:30:58;;;;;;;3.95;0.50;;;13.40;99.90;;;;;;5061399;28;20458;-79
2022/10/25 01:33:35;;;;;;;2.15;0.40;;;13.40;99.90;;;;;;5055710;28;20025;-80
2022/10/25 01:36:32;;;;;;;2.50;0.77;;;13.50;99.90;;;;;;5061178;28;20119;-77
2022/10/25 01:39:19;;;;;;;2.95;0.40;;;13.50;99.90;;;;;;5059462;28;20047;-82
2022/10/25 01:41:51;;;;;;;2.05;0.50;;;13.40;99.90;;;;;;5042862;28;20480;-81
2022/10/25 01:44:37;;;;;;;4.22;0.77;;;13.50;99.90;;;;;;5063888;28;20354;-76
2022/10/25 01:47:23;;;;;;;1.63;0.40;;;13.50;99.90;;;;;;5060126;28;20529;-82
2022/10/25 01:50:12;;;;;;;2.95;0.40;;;13.40;99.90;;;;;;5054180;28;20071;-81
2022/10/25 01:52:38;;;;;;;4.60;0.50;;;13.40;99.90;;;;;;5061285;28;20033;-77
2022/10/25 01:55:07;;;;;;;3.17;0.75;;;13.40;99.90;;;;;;5058385;28;20378;-80
2022/10/25 01:57:57;;;;;;;3.50;0.50;;;13.40;99.90;;;;;;5058556;28;20199;-76
2022/10/25 02:00:25;;;;;;;7.75;0.63;;;13.50;99.90;;;;;;5058090;28;20119;-80
2022/10/25 02:03:27;;;;;;;4.25;0.52;;;13.50;99.90;;;;;;5045119;28;20115;-80
2022/10/25 02:06:43;;;;;;;5.60;0.30;;;13.50;99.90;;;;;;5044878;28;20024;-80
2022/10/25 02:09:26;;;;;;;3.50;0.57;;;13.50;99.90;;;;;;4984523;28;20042;-76
2022/10/25 02:11:53;;;;;;;7.00;0.70;;;13.50;99.90;;;;;;4984878;28;20572;-77
2022/10/25 02:14:36;;;;;;;4.85;0.50;;;13.50;99.90;;;;;;4984324;28;20058;-79
2022/10/25 02:17:08;;;;;;;4.63;0.45;;;13.50;99.90;;;;;;4985018;28;20034;-83
2022/10/25 02:19:52;;;;;;;2.45;0.35;;;13.50;99.90;;;;;;4982985;28;20038;-76
2022/10/25 02:22:22;;;;;;;3.33;0.30;;;13.40;99.90;;;;;;4968859;28;20030;-80
2022/10/25 02:24:49;;;;;;;;;;;13.40;99.90;;;;;;4985950;28;20161;-76
2022/10/25 02:27:16;;;;;;;1.88;0.40;;;13.50;99.90;;;;;;4984560;28;19928;-76
2022/10/25 02:29:43;;;;;;;3.08;0.45;;;13.50;99.90;;;;;;4985312;28;20038;-80
2022/10/25 02:32:09;;;;;;;1.40;0.50;;;13.50;99.90;;;;;;4984774;28;20526;-82
2022/10/25 02:34:34;;;;;;;2.42;0.38;;;13.50;99.90;;;;;;4984799;28;20137;-82
2022/10/25 02:37:00;;;;;;;3.13;0.50;;;13.50;99.90;;;;;;4984943;28;20431;-76
2022/10/25 02:39:28;;;;;;;4.03;0.60;;;13.50;99.90;;;;;;4968431;28;20438;-76
2022/10/25 02:41:53;;;;;;;3.35;0.45;;;13.40;99.90;;;;;;4990540;28;20034;-76
2022/10/25 02:44:19;;;;;;;2.45;0.40;;;13.40;99.90;;;;;;5063213;28;20021;-76
2022/10/25 02:46:45;;;;;;;4.72;0.47;;;13.40;99.90;;;;;;5063432;28;20107;-82
2022/10/25 02:49:10;;;;;;;2.58;0.50;;;13.30;99.90;;;;;;5060960;28;20021;-75
2022/10/25 02:51:36;;;;;;;4.22;0.60;;;13.30;99.90;;;;;;5060889;28;20032;-76
2022/10/25 02:54:02;;;;;;;5.78;0.90;;;13.30;99.90;;;;;;5061157;28;20045;-81
2022/10/25 02:56:28;;;;;;;3.78;0.60;;;13.40;99.90;;;;;;5062009;28;20123;-76
2022/10/25 02:58:55;;;;;;;4.20;0.77;;;13.40;99.90;;;;;;5047177;28;20135;-78
2022/10/25 03:01:22;;;;;;;6.50;1.33;;;13.40;99.90;;;;;;5064235;28;20024;-76
2022/10/25 03:03:47;;;;;;;7.03;1.08;;;13.50;99.90;;;;;;5062156;28;20037;-77
2022/10/25 03:06:13;;;;;;;8.27;2.20;;;13.50;99.90;;;;;;5068385;28;20399;-77
2022/10/25 03:08:40;;;;;;;4.30;0.85;;;13.50;99.90;;;;;;5064442;28;20032;-79
2022/10/25 03:11:07;;;;;;;3.70;1.33;;;13.50;99.90;;;;;;5065734;28;20036;-79
2022/10/25 03:13:33;;;;;;;2.80;0.70;;;13.40;99.90;;;;;;5068725;28;20476;-79
2022/10/25 03:15:58;;;;;;;6.55;1.05;;;13.40;99.90;;;;;;5066747;28;20131;-75
2022/10/25 03:18:24;;;;;;;3.38;1.17;;;13.40;99.90;;;;;;5064270;28;20431;-76
2022/10/25 03:20:50;;;;;;;6.38;1.30;;;13.50;99.90;;;;;;5065672;28;20028;-76
2022/10/25 03:23:17;;;;;;;4.50;1.08;;;13.50;99.90;;;;;;5067733;28;20056;-76
2022/10/25 03:25:43;;;;;;;5.35;1.25;;;13.40;99.90;;;;;;5052463;28;20056;-76
2022/10/25 03:28:08;;;;;;;6.43;1.55;;;13.40;99.90;;;;;;5075462;28;20067;-75
2022/10/25 03:30:34;;;;;;;7.55;1.20;;;13.40;99.90;;;;;;5050315;28;20032;-77
2022/10/25 03:33:00;;;;;;;6.10;1.60;;;13.50;99.90;;;;;;5066747;28;20037;-75
2022/10/25 03:35:27;;;;;;;2.97;1.02;;;13.50;99.90;;;;;;5066117;28;20488;-76
2022/10/25 03:37:53;;;;;;;4.93;0.98;;;13.50;99.90;;;;;;5065816;28;20393;-76
2022/10/25 03:40:19;;;;;;;4.35;1.00;;;13.50;99.90;;;;;;5066252;28;20616;-82
2022/10/25 03:42:45;;;;;;;2.45;0.60;;;13.50;99.90;;;;;;5064159;28;20476;-82
2022/10/25 03:45:11;;;;;;;3.90;0.80;;;13.50;99.90;;;;;;5065964;28;20040;-80
2022/10/25 03:47:38;;;;;;;3.67;0.75;;;13.50;99.90;;;;;;5064772;28;20025;-81
2022/10/25 03:50:05;;;;;;;5.85;0.85;;;13.50;99.90;;;;;;5065449;28;20028;-76
2022/10/25 03:52:30;;;;;;;3.78;0.90;;;13.50;99.90;;;;;;5067123;28;20477;-82
2022/10/25 03:54:56;;;;;;;4.57;1.30;;;13.60;99.90;;;;;;5064914;28;20031;-82
2022/10/25 03:57:22;;;;;;;3.75;1.23;;;13.60;99.90;;;;;;5060314;28;20043;-80
2022/10/25 03:59:47;;;;;;;3.75;0.70;;;13.60;99.90;;;;;;5067686;28;20035;-76
2022/10/25 04:02:14;;;;;;;5.80;1.02;;;13.50;99.90;;;;;;5062821;28;20025;-77
2022/10/25 04:04:39;;;;;;;10.40;2.40;;;13.50;99.90;;;;;;5066167;28;20067;-77
2022/10/25 04:07:05;;;;;;;5.70;1.08;;;13.50;99.90;;;;;;5067601;28;20028;-79
2022/10/25 04:09:32;;;;;;;7.10;1.67;;;13.60;99.90;;;;;;5064980;28;20427;-78
2022/10/25 04:11:57;;;;;;;5.10;0.85;;;13.60;99.90;;;;;;5063020;28;20061;-75
2022/10/25 04:14:23;;;;;;;2.40;0.90;;;13.60;99.90;;;;;;5064338;28;20072;-79
2022/10/25 04:16:49;;;;;;;4.05;0.88;;;13.60;99.90;;;;;;5076063;28;20037;-82
2022/10/25 04:19:14;;;;;;;1.83;0.80;;;13.60;99.90;;;;;;5063367;28;20012;-75
2022/10/25 04:21:40;;;;;;;5.57;1.98;;;13.50;99.90;;;;;;5062278;28;20447;-78
2022/10/25 04:24:06;;;;;;;4.15;1.10;;;13.60;99.90;;;;;;5064726;28;20024;-76
2022/10/25 04:26:35;;;;;;;7.45;1.40;;;13.60;99.90;;;;;;5063960;28;20055;-76
2022/10/25 04:29:01;;;;;;;4.55;1.20;;;13.70;99.90;;;;;;5065284;28;20037;-75
2022/10/25 04:31:27;;;;;;;6.20;1.90;;;13.70;99.90;;;;;;5064096;28;20037;-76
2022/10/25 04:33:54;;;;;;;7.60;2.42;;;13.70;99.90;;;;;;5064188;28;20447;-82
2022/10/25 04:36:21;;;;;;;5.97;1.60;;;13.70;99.90;;;;;;5062837;28;20031;-77
2022/10/25 04:38:48;;;;;;;2.92;1.00;;;13.50;99.90;;;;;;5063147;28;20028;-80
2022/10/25 04:41:14;;;;;;;7.22;2.45;;;13.60;99.90;;;;;;5044419;28;20029;-77
2022/10/25 04:43:39;;;;;;;6.25;1.75;;;13.60;99.90;;;;;;5064973;28;20359;-82
2022/10/25 04:46:05;;;;;;;4.63;1.13;;;13.50;99.90;;;;;;5062833;28;20489;-75
2022/10/25 04:48:31;;;;;;;5.13;1.38;;;13.40;99.90;;;;;;5065658;28;20028;-82
2022/10/25 04:51:00;;;;;;;3.88;1.00;;;13.40;99.90;;;;;;5055463;28;20032;-82
2022/10/25 04:53:25;;;;;;;3.65;0.80;;;13.40;99.90;;;;;;5064903;28;20362;-78
2022/10/25 04:55:56;;;;;;;4.57;1.10;;;13.40;99.90;;;;;;5060668;28;20058;-81
2022/10/25 04:58:22;;;;;;;5.50;1.00;;;13.30;99.90;;;;;;5060747;28;20076;-75
2022/10/25 05:00:48;;;;;;;4.80;0.90;;;13.30;99.90;;;;;;5059284;28;20025;-82
2022/10/25 05:03:13;;;;;;;4.78;1.00;;;13.30;99.90;;;;;;5064635;28;20123;-76
2022/10/25 05:05:39;;;;;;;2.88;0.63;;;13.30;99.90;;;;;;5064699;28;20115;-80
2022/10/25 05:08:05;;;;;;;6.80;1.90;;;13.20;99.90;;;;;;5063833;28;20112;-75
2022/10/25 05:10:30;;;;;;;8.00;2.42;;;13.30;99.90;;;;;;5063685;28;20052;-81
2022/10/25 05:12:56;;;;;;;5.40;1.60;;;13.30;99.90;;;;;;5043961;28;20532;-77
2022/10/25 05:15:22;;;;;;;3.40;1.40;;;13.30;99.90;;;;;;5077102;28;20396;-76
2022/10/25 05:17:47;;;;;;;5.40;1.83;;;13.30;99.90;;;;;;5044510;28;20390;-76
2022/10/25 05:20:13;;;;;;;4.30;1.08;;;13.30;99.90;;;;;;5062102;28;20031;-75
2022/10/25 05:22:38;;;;;;;3.03;1.40;;;13.20;99.90;;;;;;5061860;28;20036;-79
2022/10/25 05:25:05;;;;;;;3.40;1.20;;;13.30;99.90;;;;;;5063707;28;20081;-77
2022/10/25 05:27:31;;;;;;;2.28;0.75;;;13.20;99.90;;;;;;5046382;28;20033;-78
2022/10/25 05:29:56;;;;;;;7.75;2.08;;;13.10;99.90;;;;;;5064266;28;20043;-82
2022/10/25 05:32:22;;;;;;;6.32;2.08;;;13.20;99.90;;;;;;5041772;28;20075;-76
2022/10/25 05:34:47;;;;;;;5.63;2.05;;;13.30;99.90;;;;;;5042149;28;20017;-78
2022/10/25 05:37:13;;;;;;;5.63;1.67;;;13.30;99.90;;;;;;5056631;28;20048;-75
2022/10/25 05:39:39;;;;;;;3.25;1.15;;;13.30;99.90;;;;;;5009933;28;20990;-76
2022/10/25 05:42:05;;;;;;;5.25;2.05;;;13.30;99.90;;;;;;5048929;28;20024;-81
2022/10/25 05:44:31;;;;;;;7.15;2.42;;;13.30;99.90;;;;;;5010102;28;21166;-77
2022/10/25 05:46:57;;;;;;;5.43;1.83;;;13.40;99.90;;;;;;5044533;28;20033;-75
2022/10/25 05:49:22;;;;;;;3.63;1.30;;;13.30;99.90;;;;;;5039393;28;20510;-78
2022/10/25 05:51:48;;;;;;;3.25;1.38;;;13.30;99.90;;;;;;5057728;28;20040;-79
2022/10/25 05:54:14;;;;;;;3.90;1.70;;;13.40;99.90;;;;;;5057891;28;20399;-76
2022/10/25 05:56:41;;;;;;;3.63;1.38;;;13.40;99.90;;;;;;5038374;28;20075;-76
2022/10/25 05:59:09;;;;;;;3.35;1.10;;;13.30;99.90;;;;;;5054082;28;20033;-75
2022/10/25 06:01:38;;;;;;;4.13;1.20;;;13.30;99.90;;;;;;5043652;28;20362;-75
2022/10/25 06:04:05;;;;;;;6.57;2.47;;;13.30;99.90;;;;;;5043291;28;20039;-76
2022/10/25 06:06:30;;;;;;;21.50;11.05;;;13.30;99.90;;;;;;5039346;28;20530;-80
2022/10/25 06:08:57;;;;;;;12.48;6.72;;;13.30;99.90;;;;;;5033163;28;20032;-79
2022/10/25 06:11:24;;;;;;;11.15;4.40;;;13.30;99.90;;;;;;5056080;28;20024;-77
2022/10/25 06:13:50;;;;;;;5.95;2.63;;;13.30;99.90;;;;;;5041346;28;20025;-76
2022/10/25 06:16:18;;;;;;;5.07;2.17;;;13.30;99.90;;;;;;5026128;28;20385;-76
2022/10/25 06:18:44;;;;;;;7.28;2.72;;;13.30;99.90;;;;;;5037780;28;20074;-75
2022/10/25 06:21:16;;;;;;;6.82;2.92;;;13.30;99.90;;;;;;5048541;28;20056;-75
2022/10/25 06:23:42;;;;;;;4.47;1.50;;;13.30;99.90;;;;;;5045671;28;20532;-75
2022/10/25 06:26:11;;;;;;;2.80;1.10;;;13.30;99.90;;;;;;5043475;28;20036;-75
2022/10/25 06:28:37;;;;;;;5.97;1.50;;;13.30;99.90;;;;;;5042240;28;20033;-75
2022/10/25 06:31:10;;;;;;;5.43;1.67;;;13.20;99.90;;;;;;5045637;28;20039;-76
2022/10/25 06:33:37;;;;;;;4.20;2.22;;;13.20;99.90;;;;;;5047497;28;20033;-75
2022/10/25 06:36:04;;;;;;;4.70;2.35;;;13.20;99.90;;;;;;5047509;28;20033;-75
2022/10/25 06:38:30;;;;;;;4.43;1.60;;;13.20;99.90;;;;;;5028128;28;20546;-75
2022/10/25 06:41:05;;;;;;;3.10;1.15;;;13.20;99.90;;;;;;5048611;28;20044;-75
2022/10/25 06:43:33;;;;;;;5.07;2.08;;;13.20;99.90;;;;;;5048465;28;20064;-76
2022/10/25 06:46:07;;;;;;;5.63;1.88;;;13.20;99.90;;;;;;5048805;28;20154;-75
2022/10/25 06:48:33;;;;;;;2.50;1.67;;;13.20;99.90;;;;;;5048310;28;20090;-75
2022/10/25 06:51:08;;;;;;;5.00;1.75;;;13.20;99.90;;;;;;5047447;28;20518;-77
2022/10/25 06:53:35;;;;;;;6.32;3.17;;;13.20;99.90;;;;;;5049155;28;20143;-75
2022/10/25 06:56:02;;;;;;;5.80;2.45;;;13.20;99.90;;;;;;5040767;28;20033;-74
2022/10/25 06:58:32;;;;;;;6.70;2.17;;;13.20;99.90;;;;;;5047067;28;20040;-77
2022/10/25 07:01:01;;;;;;;;;;;13.20;99.90;;;;;;5046934;28;20048;-75
2022/10/25 07:03:30;;;;;;;4.33;1.70;;;13.20;99.90;;;;;;5048881;28;20427;-76
2022/10/25 07:06:14;;;;;;;8.90;4.40;;;13.20;99.90;;;;;;5047980;28;20379;-74
2022/10/25 07:08:42;;;;;;;8.10;3.60;;;13.20;99.90;;;;;;5052832;28;20033;-75
2022/10/25 07:11:13;;;;;;;6.50;3.45;;;13.20;99.90;;;;;;5058035;28;20064;-75
2022/10/25 07:13:39;;;;;;;7.32;4.32;;;13.30;99.90;;;;;;5059464;28;20064;-77
2022/10/25 07:16:07;;;;;;;8.18;4.43;;;13.30;99.90;;;;;;5060061;28;20067;-74
2022/10/25 07:18:34;;;;;;;8.07;3.67;;;13.40;99.90;;;;;;5060755;28;20028;-78
2022/10/25 07:21:05;;;;;;;11.98;4.72;;;13.40;99.90;;;;;;5060269;28;20748;-76
2022/10/25 07:23:32;;;;;;;6.40;3.90;;;13.40;99.90;;;;;;5061851;28;20033;-79
2022/10/25 07:25:58;;;;;;;7.55;4.45;;;13.30;99.90;;;;;;5059757;28;20032;-75
2022/10/25 07:28:24;;;;;;;7.90;4.43;;;13.40;99.90;;;;;;5058456;28;20120;-76
2022/10/25 07:30:50;;;;;;;8.45;4.22;;;13.40;99.90;;;;;;5042352;28;20115;-75
2022/10/25 07:33:18;;;;;;;11.65;5.50;;;13.40;99.90;;;;;;5051959;28;20029;-74
2022/10/25 07:35:45;;;;;;;7.55;4.55;;;13.30;99.90;;;;;;5009496;28;20693;-73
2022/10/25 07:38:11;;;;;;;26.15;16.70;;;13.30;99.90;;;;;;5039504;28;20077;-74
2022/10/25 07:40:37;;;;;;;21.25;14.65;;;13.30;99.90;;;;;;5040545;28;20028;-74
2022/10/25 07:43:02;;;;;;;14.82;9.20;;;13.30;99.90;;;;;;5038039;28;20036;-75
2022/10/25 07:45:28;;;;;;;9.90;6.70;;;13.30;99.90;;;;;;5041414;28;20046;-76
2022/10/25 07:47:54;;;;;;;10.18;4.85;;;13.30;99.90;;;;;;5037698;28;20124;-74
2022/10/25 07:50:19;;;;;;;6.45;3.45;;;13.40;99.90;;;;;;5042130;28;20033;-76
2022/10/25 07:52:46;;;;;;;6.43;2.58;;;13.40;99.90;;;;;;5044446;28;20037;-75
2022/10/25 07:55:12;;;;;;;9.98;4.78;;;13.40;99.90;;;;;;5025368;28;20468;-76
2022/10/25 07:57:38;;;;;;;7.93;5.03;;;13.40;99.90;;;;;;5039728;28;20029;-75
2022/10/25 08:00:05;;;;;;;7.70;3.65;;;13.40;99.90;;;;;;5054142;28;20036;-79
2022/10/25 08:02:31;;;;;;;4.63;2.63;;;13.40;99.90;;;;;;5022486;28;20067;-75
2022/10/25 08:04:57;;;;;;;5.20;3.58;;;13.40;99.90;;;;;;5020420;28;20127;-75
2022/10/25 08:07:22;;;;;;;5.72;2.60;;;13.50;99.90;;;;;;5030677;28;20115;-75
2022/10/25 08:09:48;;;;;;;5.97;1.98;;;13.60;99.90;;;;;;5024555;28;20824;-74
2022/10/25 08:12:14;;;;;;;7.82;4.03;;;13.80;99.90;;;;;;5020897;28;20131;-75
2022/10/25 08:14:39;;;;;;;6.63;3.20;;;13.80;99.90;;;;;;5034523;28;20059;-75
2022/10/25 08:17:05;;;;;;;7.65;4.25;;;13.80;99.90;;;;;;5040174;28;20066;-75
2022/10/25 08:19:31;;;;;;;12.60;4.13;;;13.90;99.90;;;;;;5034753;28;20638;-75
2022/10/25 08:21:57;;;;;;;9.95;3.88;;;13.90;99.90;;;;;;5029683;28;20446;-75
2022/10/25 08:24:22;;;;;;;8.82;4.32;;;14.00;99.90;;;;;;5035953;28;20029;-75
2022/10/25 08:26:48;;;;;;;6.65;3.30;;;14.00;99.90;;;;;;5022332;28;20128;-81
2022/10/25 08:29:14;;;;;;;9.57;4.30;;;14.00;99.90;;;;;;5035042;28;20111;-75
2022/10/25 08:31:39;;;;;;;5.65;4.05;;;14.00;99.90;;;;;;5013625;28;20134;-75
2022/10/25 08:34:05;;;;;;;10.02;4.72;;;13.90;99.90;;;;;;5018587;28;21873;-75
2022/10/25 08:36:31;;;;;;;9.13;5.07;;;13.90;99.90;;;;;;5036741;28;20040;-75
2022/10/25 08:38:56;;;;;;;12.38;6.93;;;13.80;99.90;;;;;;5033514;28;20530;-75
2022/10/25 08:41:52;;;;;;;12.27;6.38;;;13.80;99.90;;;;;;5038292;28;20120;-77
2022/10/25 08:44:18;;;;;;;12.50;7.35;;;13.80;99.90;;;;;;5030850;28;21153;-76
2022/10/25 08:46:55;;;;;;;9.07;5.13;;;13.80;99.90;;;;;;5043977;28;20032;-76
2022/10/25 08:49:37;;;;;;;11.43;6.78;;;13.90;99.90;;;;;;5019454;28;20074;-76
2022/10/25 08:52:05;;;;;;;12.27;6.93;;;13.90;99.90;;;;;;5042485;28;20047;-76
2022/10/25 08:54:39;;;;;;;8.85;5.20;;;14.00;99.90;;;;;;5046064;28;20055;-75
2022/10/25 08:57:17;;;;;;;10.35;6.25;;;14.10;99.90;;;;;;5030976;28;20101;-75
2022/10/25 08:59:49;;;;;;;6.60;4.65;;;14.00;99.90;;;;;;5046517;28;20037;-76
2022/10/25 09:02:32;;;;;;;5.80;3.70;;;14.00;99.90;;;;;;5046884;28;20451;-75
2022/10/25 09:04:58;;;;;;;9.85;5.25;;;14.20;99.90;;;;;;5047535;28;20032;-75
2022/10/25 09:07:32;;;;;;;10.75;6.60;;;14.10;99.90;;;;;;5048278;28;20501;-79
2022/10/25 09:10:12;;;;;;;7.15;4.32;;;14.20;99.90;;;;;;5038062;28;20032;-75
2022/10/25 09:13:03;;;;;;;8.07;4.65;;;14.20;99.90;;;;;;5048670;28;20052;-76
2022/10/25 09:15:47;;;;;;;9.18;5.88;;;14.40;99.90;;;;;;5031535;28;20106;-76
2022/10/25 09:18:15;;;;;;;12.25;5.38;;;14.20;99.90;;;;;;5046197;28;20058;-74
2022/10/25 09:20:51;;;;;;;10.25;4.13;;;14.30;99.90;;;;;;5049101;28;20056;-76
2022/10/25 09:23:29;;;;;;;5.03;3.28;;;14.50;99.90;;;;;;5046750;28;20037;-75
2022/10/25 09:26:04;;;;;;;13.52;6.80;;;14.40;99.90;;;;;;5043665;28;20755;-75
2022/10/25 09:28:54;;;;;;;10.45;7.05;;;14.30;99.90;;;;;;5045770;28;20036;-77
2022/10/25 09:31:24;;;;;;;9.57;5.75;;;14.40;99.90;;;;;;5046846;28;20048;-75
2022/10/25 09:33:56;;;;;;;13.20;6.35;;;14.50;99.90;;;;;;5046319;28;20410;-75
2022/10/25 09:36:23;;;;;;;8.20;5.88;;;14.50;99.90;;;;;;5046405;28;20095;-80
2022/10/25 09:38:58;;;;;;;7.60;4.95;;;14.50;99.90;;;;;;5046354;28;20036;-75
2022/10/25 09:41:42;;;;;;;11.30;5.22;;;14.80;99.90;;;;;;5046856;28;20452;-76
2022/10/25 09:44:37;;;;;;;9.45;6.20;;;14.80;99.90;;;;;;5045525;28;20064;-75
2022/10/25 09:47:29;;;;;;;8.35;4.30;;;14.70;99.90;;;;;;5005990;28;20028;-75
2022/10/25 09:50:05;;;;;;;7.13;4.65;;;14.90;99.90;;;;;;4979826;28;20041;-74
2022/10/25 09:52:38;;;;;;;6.57;4.10;;;14.90;99.90;;;;;;5006871;28;20040;-76
2022/10/25 09:55:26;;;;;;;6.68;3.60;;;15.00;99.90;;;;;;5006583;28;20028;-76
2022/10/25 09:57:53;;;;;;;8.05;3.70;;;15.10;99.90;;;;;;5016048;28;20041;-75
2022/10/25 10:00:19;;;;;;;7.88;3.92;;;15.10;99.90;;;;;;5006598;28;20052;-75
2022/10/25 10:02:44;;;;;;;5.40;3.90;;;15.10;99.90;;;;;;5001191;28;20066;-75
2022/10/25 10:05:16;;;;;;;6.55;2.97;;;15.10;99.90;;;;;;5002753;28;20041;-75
2022/10/25 10:07:43;;;;;;;4.65;1.77;;;15.30;99.90;;;;;;4989425;28;20033;-74
2022/10/25 10:10:14;;;;;;;5.57;2.08;;;15.30;99.90;;;;;;4986415;28;20481;-76
2022/10/25 10:13:00;;;;;;;5.25;1.52;;;15.60;99.90;;;;;;5009454;28;20431;-74
2022/10/25 10:15:53;;;;;;;5.82;2.28;;;15.50;99.90;;;;;;5003341;28;20052;-74
2022/10/25 10:18:26;;;;;;;6.28;2.47;;;15.50;99.90;;;;;;5000396;28;20527;-78
2022/10/25 10:21:03;;;;;;;5.88;2.40;;;15.40;99.90;;;;;;5002996;28;20033;-75
2022/10/25 10:23:35;;;;;;;3.42;1.38;;;15.40;99.90;;;;;;5006265;28;20106;-75
2022/10/25 10:26:09;;;;;;;3.15;1.60;;;15.30;99.90;;;;;;5000586;28;20734;-75
2022/10/25 10:28:35;;;;;;;3.72;1.08;;;15.30;99.90;;;;;;4980930;28;20085;-76
2022/10/25 10:31:04;;;;;;;3.45;1.65;;;15.50;99.90;;;;;;5017714;28;20161;-76
2022/10/25 10:33:33;;;;;;;3.10;1.00;;;15.30;99.90;;;;;;5000743;28;20487;-75
2022/10/25 10:36:19;;;;;;;5.38;1.38;;;15.20;99.90;;;;;;4985758;28;20643;-75
2022/10/25 10:38:45;;;;;;;3.25;0.80;;;15.10;99.90;;;;;;4993954;28;20055;-79
2022/10/25 10:41:19;;;;;;;4.40;1.10;;;15.10;99.90;;;;;;4997480;28;20024;-76
2022/10/25 10:43:44;;;;;;;3.60;1.17;;;15.20;99.90;;;;;;5013147;28;20559;-80
2022/10/25 10:46:14;;;;;;;3.20;1.10;;;15.30;99.90;;;;;;5013999;28;20989;-75
2022/10/25 10:48:45;;;;;;;3.58;1.45;;;15.30;99.90;;;;;;4995739;28;20072;-76
2022/10/25 10:51:16;;;;;;;3.58;1.38;;;15.40;99.90;;;;;;5001723;28;20532;-77
2022/10/25 10:53:42;;;;;;;2.95;1.33;;;15.50;99.90;;;;;;5007036;28;20439;-76
2022/10/25 10:56:08;;;;;;;4.43;1.00;;;15.50;99.90;;;;;;5000559;28;20834;-75
2022/10/25 10:58:37;;;;;;;5.70;1.10;;;15.60;99.90;;;;;;4994756;28;20032;-75
2022/10/25 11:01:09;;;;;;;3.20;1.10;;;15.70;99.90;;;;;;4979038;28;20044;-80
2022/10/25 11:03:41;;;;;;;4.13;1.50;;;15.90;99.90;;;;;;5015753;28;20029;-75
2022/10/25 11:06:06;;;;;;;4.10;0.90;;;15.70;99.90;;;;;;4998542;28;20567;-75
2022/10/25 11:08:33;;;;;;;7.20;1.85;;;15.60;99.90;;;;;;4999575;28;20123;-75
2022/10/25 11:11:31;;;;;;;4.32;1.55;;;15.60;99.90;;;;;;5000507;28;20033;-75
2022/10/25 11:13:59;;;;;;;5.65;1.65;;;15.80;99.90;;;;;;4960637;28;20799;-75
2022/10/25 11:16:40;;;;;;;3.38;0.95;;;15.70;99.90;;;;;;5000477;28;20056;-75
2022/10/25 11:19:20;;;;;;;3.22;0.80;;;15.70;99.90;;;;;;5005383;28;20040;-75
2022/10/25 11:22:10;;;;;;;3.60;1.23;;;15.80;99.90;;;;;;5001659;28;20032;-75
2022/10/25 11:24:43;;;;;;;;;;;15.90;99.90;;;;;;5007847;28;20032;-79
2022/10/25 11:27:36;;;;;;;7.97;1.65;;;16.00;99.90;;;;;;5012840;28;19916;-75
2022/10/25 11:30:09;;;;;;;4.25;1.10;;;15.90;99.90;;;;;;5004429;28;20150;-76
2022/10/25 11:33:06;;;;;;;4.13;1.08;;;16.10;99.90;;;;;;5006420;28;20032;-78
2022/10/25 11:35:43;;;;;;;3.05;0.70;;;16.10;99.90;;;;;;4993438;28;20121;-76
2022/10/25 11:38:27;;;;;;;3.15;0.60;;;16.20;99.90;;;;;;5001951;28;20029;-75
2022/10/25 11:41:08;;;;;;;3.00;0.60;;;16.30;99.90;;;;;;5019684;28;20046;-76
2022/10/25 11:43:51;;;;;;;4.93;0.60;;;16.40;99.90;;;;;;4993973;28;20036;-77
2022/10/25 11:46:48;;;;;;;5.05;0.50;;;16.40;99.90;;;;;;5003693;28;20483;-75
2022/10/25 11:49:32;;;;;;;4.22;0.60;;;16.40;99.90;;;;;;5005870;28;20033;-75
2022/10/25 11:52:06;;;;;;;3.33;0.68;;;16.30;99.90;;;;;;4999263;28;20502;-76
2022/10/25 11:54:38;;;;;;;4.47;0.60;;;16.50;99.90;;;;;;4988297;28;20467;-76
2022/10/25 11:57:25;;;;;;;6.10;1.50;;;16.50;99.90;;;;;;5007696;28;20647;-75
2022/10/25 12:00:10;;;;;;;5.47;1.10;;;16.40;99.90;;;;;;4987069;28;20677;-75
2022/10/25 12:02:42;;;;;;;5.13;1.15;;;16.20;99.90;;;;;;5001277;28;20705;-75
2022/10/25 12:05:13;;;;;;;3.67;1.08;;;16.30;99.90;;;;;;4991625;28;20113;-76
2022/10/25 12:08:05;;;;;;;5.53;0.68;;;16.30;99.90;;;;;;5008141;28;20059;-78
2022/10/25 12:10:33;;;;;;;3.42;0.40;;;16.20;99.90;;;;;;5004504;28;20050;-76
2022/10/25 12:13:16;;;;;;;3.63;0.40;;;16.30;99.90;;;;;;4997106;28;20044;-76
2022/10/25 12:15:45;;;;;;;5.18;0.77;;;16.50;99.90;;;;;;5000796;28;20053;-77
2022/10/25 12:18:24;;;;;;;6.15;0.70;;;16.60;99.90;;;;;;5000581;28;20032;-76
2022/10/25 12:20:51;;;;;;;7.05;0.77;;;16.80;99.90;;;;;;4993587;28;20028;-76
2022/10/25 12:23:20;;;;;;;3.83;0.73;;;16.70;99.90;;;;;;4980067;28;20412;-77
2022/10/25 12:25:53;;;;;;;3.05;0.55;;;16.80;99.90;;;;;;4997413;28;20040;-75
2022/10/25 12:28:32;;;;;;;3.70;0.60;;;16.60;99.90;;;;;;4994191;28;20037;-75
2022/10/25 12:31:36;;;;;;;1.55;0.40;;;16.80;99.90;;;;;;4996818;28;20143;-75
2022/10/25 12:34:21;;;;;;;5.50;0.55;;;17.10;99.90;;;;;;4907547;28;20502;-76
2022/10/25 12:37:06;;;;;;;2.60;0.50;;;17.10;99.90;;;;;;4919926;28;20141;-75
2022/10/25 12:39:40;;;;;;;4.85;0.52;;;16.90;99.90;;;;;;4916704;28;20157;-76
2022/10/25 12:42:16;;;;;;;3.08;0.40;;;16.80;99.90;;;;;;4930538;28;20301;-75
2022/10/25 12:45:28;;;;;;;3.55;0.50;;;17.00;99.90;;;;;;4911285;28;20138;-76
2022/10/25 12:48:25;;;;;;;1.80;0.30;;;16.60;99.90;;;;;;4905805;28;20520;-75
2022/10/25 12:50:50;;;;;;;2.28;0.30;;;16.50;99.90;;;;;;4912324;28;20057;-76
2022/10/25 12:53:37;;;;;;;3.47;0.30;;;16.50;99.90;;;;;;4922211;28;20741;-77
2022/10/25 12:56:35;;;;;;;4.15;0.30;;;16.50;99.90;;;;;;4921930;28;20038;-75
2022/10/25 12:59:29;;;;;;;3.00;0.30;;;16.70;99.90;;;;;;4909141;28;20579;-77
2022/10/25 13:02:36;;;;;;;2.63;0.40;;;16.70;99.90;;;;;;4921628;28;20197;-75
2022/10/25 13:05:10;;;;;;;2.88;0.30;;;16.80;99.90;;;;;;4912498;28;20100;-76
2022/10/25 13:07:37;;;;;;;0.73;0.20;;;16.90;99.90;;;;;;4918715;28;20046;-76
2022/10/25 13:10:17;;;;;;;1.52;0.30;;;17.10;99.90;;;;;;4982771;28;20079;-77